Time;durP1;ratioP1;P1;durP2;ratioP2;P2;SDS_P1;SDS_P2;PMS_P1;PMS_P2;Temp;Humidity;BMP_temperature;BMP_pressure;BME280_temperature;BME280_humidity;BME280_pressure;Samples;Min_cycle;Max_cycle;Signal;HPM_P1;HPM_P2
2023/11/15 00:03:20;;;;;;;;;;;;;;;;;;5141692;23;19941;-84
2023/11/15 00:08:38;;;;;;;;;;;;;;;;;;4991540;28;19926;-85
2023/11/15 00:11:42;;;;;;;;;;;;;;;;;;5173296;23;19916;-82
2023/11/15 00:14:40;;;;;;;;;;;;;;;;;;5010197;28;19929;-84
2023/11/15 00:17:30;;;;;;;;;;;;;;;;;;5163899;23;20215;-83
2023/11/15 00:23:32;;;;;;;;;;;;;;;;;;4920909;29;20485;-82
2023/11/15 00:39:34;;;;;;;;;;;;;;;;;;4954737;28;20477;-83
2023/11/15 00:42:04;;;;;;;;;;;;;;;;;;4974235;28;19914;-83
2023/11/15 00:44:56;;;;;;;;;;;;;;;;;;4989995;28;19921;-83
2023/11/15 00:48:14;;;;;;;;;;;;;;;;;;4990489;28;19949;-83
2023/11/15 00:50:54;;;;;;;;;;;;;;;;;;4978573;28;19914;-82
2023/11/15 00:53:20;;;;;;;;;;;;;;;;;;4959111;28;19921;-82
2023/11/15 00:55:52;;;;;;;;;;;;;;;;;;4975940;28;19915;-83
2023/11/15 00:58:22;;;;;;;;;;;;;;;;;;4975089;28;19918;-82
2023/11/15 01:00:55;;;;;;;;;;;;;;;;;;4974023;28;19910;-82
2023/11/15 01:03:26;;;;;;;;;;;;;;;;;;4957338;28;19915;-81
2023/11/15 01:05:54;;;;;;;;;;;;;;;;;;4989809;28;19936;-83
2023/11/15 01:08:40;;;;;;;;;;;;;;;;;;4989739;28;19929;-83
2023/11/15 01:11:07;;;;;;;;;;;;;;;;;;5006980;28;19918;-82
2023/11/15 01:13:41;;;;;;;;;;;;;;;;;;4975289;28;20000;-82
2023/11/15 01:16:06;;;;;;;;;;;;;;;;;;4990922;28;19986;-82
2023/11/15 01:18:35;;;;;;;;;;;;;;;;;;4991185;28;20284;-82
2023/11/15 01:21:23;;;;;;;;;;;;;;;;;;4996158;28;19949;-82
2023/11/15 01:23:52;;;;;;;;;;;;;;;;;;4994893;28;19923;-81
2023/11/15 01:26:21;;;;;;;;;;;;;;;;;;4981624;28;19898;-82
2023/11/15 01:28:50;;;;;;;;;;;;;;;;;;4981494;28;19922;-82
2023/11/15 01:31:18;;;;;;;;;;;;;;;;;;4977500;28;19942;-82
2023/11/15 01:33:46;;;;;;;;;;;;;;;;;;4976450;28;19914;-82
2023/11/15 01:36:18;;;;;;;;;;;;;;;;;;4989354;28;19918;-81
2023/11/15 01:38:45;;;;;;;;;;;;;;;;;;4973372;28;19914;-82
2023/11/15 01:41:16;;;;;;;;;;;;;;;;;;4988921;28;19924;-82
2023/11/15 01:43:44;;;;;;;;;;;;;;;;;;4986177;28;19914;-80
2023/11/15 01:46:09;;;;;;;;;;;;;;;;;;4970275;28;19918;-83
2023/11/15 01:48:39;;;;;;;;;;;;;;;;;;4970850;28;19925;-82
2023/11/15 01:51:05;;;;;;;;;;;;;;;;;;4972612;28;19914;-81
2023/11/15 01:53:31;;;;;;;;;;;;;;;;;;4978536;28;19914;-82
2023/11/15 01:55:58;;;;;;;;;;;;;;;;;;4980504;28;19924;-81
2023/11/15 01:58:42;;;;;;;;;;;;;;;;;;4997109;28;19933;-81
2023/11/15 02:01:08;;;;;;;;;;;;;;;;;;4995825;28;19918;-82
2023/11/15 02:03:40;;;;;;;;;;;;;;;;;;4980966;28;19914;-83
2023/11/15 02:06:09;;;;;;;;;;;;;;;;;;4998039;28;19914;-83
2023/11/15 02:08:35;;;;;;;;;;;;;;;;;;4981516;28;20412;-81
2023/11/15 02:11:04;;;;;;;;;;;;;;;;;;4966320;28;19898;-82
2023/11/15 02:13:34;;;;;;;;;;;;;;;;;;4997209;28;19977;-81
2023/11/15 02:16:06;;;;;;;;;;;;;;;;;;4981219;28;19926;-82
2023/11/15 02:18:35;;;;;;;;;;;;;;;;;;4981273;28;19898;-82
2023/11/15 02:21:01;;;;;;;;;;;;;;;;;;4997472;28;19902;-81
2023/11/15 02:23:34;;;;;;;;;;;;;;;;;;4981736;28;19937;-83
2023/11/15 02:26:02;;;;;;;;;;;;;;;;;;4982984;28;19914;-82
2023/11/15 02:28:29;;;;;;;;;;;;;;;;;;4981691;28;19977;-82
2023/11/15 02:30:56;;;;;;;;;;;;;;;;;;4997921;28;19914;-81
2023/11/15 02:33:22;;;;;;;;;;;;;;;;;;4979330;28;19914;-80
2023/11/15 02:35:48;;;;;;;;;;;;;;;;;;4974633;28;19918;-80
2023/11/15 02:38:15;;;;;;;;;;;;;;;;;;4972230;28;19918;-82
2023/11/15 02:40:45;;;;;;;;;;;;;;;;;;4988393;28;19966;-83
2023/11/15 02:43:12;;;;;;;;;;;;;;;;;;4974807;28;19949;-81
2023/11/15 02:45:40;;;;;;;;;;;;;;;;;;4974270;28;20243;-82
2023/11/15 02:48:06;;;;;;;;;;;;;;;;;;4973889;28;19937;-83
2023/11/15 02:50:51;;;;;;;;;;;;;;;;;;4990637;28;19958;-82
2023/11/15 02:53:18;;;;;;;;;;;;;;;;;;4976025;28;19948;-82
2023/11/15 02:55:47;;;;;;;;;;;;;;;;;;4976311;28;19998;-83
2023/11/15 02:58:14;;;;;;;;;;;;;;;;;;4975374;28;19914;-80
2023/11/15 03:00:44;;;;;;;;;;;;;;;;;;4977130;28;19914;-81
2023/11/15 03:03:12;;;;;;;;;;;;;;;;;;4960022;28;19914;-81
2023/11/15 03:05:40;;;;;;;;;;;;;;;;;;4960821;28;19898;-81
2023/11/15 03:08:07;;;;;;;;;;;;;;;;;;4978374;28;19989;-82
2023/11/15 03:10:35;;;;;;;;;;;;;;;;;;4980134;28;19902;-82
2023/11/15 03:13:21;;;;;;;;;;;;;;;;;;4995959;28;19929;-81
2023/11/15 03:16:15;;;;;;;;;;;;;;;;;;4996020;28;20399;-81
2023/11/15 03:18:42;;;;;;;;;;;;;;;;;;4963626;28;19914;-82
2023/11/15 03:21:10;;;;;;;;;;;;;;;;;;4978479;28;19941;-83
2023/11/15 03:23:35;;;;;;;;;;;;;;;;;;4993631;28;19914;-82
2023/11/15 03:26:20;;;;;;;;;;;;;;;;;;4980851;28;19929;-82
2023/11/15 03:28:45;;;;;;;;;;;;;;;;;;4963952;28;19906;-82
2023/11/15 03:31:12;;;;;;;;;;;;;;;;;;4980357;28;19928;-83
2023/11/15 03:33:39;;;;;;;;;;;;;;;;;;4981104;28;19914;-82
2023/11/15 03:36:05;;;;;;;;;;;;;;;;;;4913892;28;1962564;-82
2023/11/15 03:38:54;;;;;;;;;;;;;;;;;;4984795;28;19913;-81
2023/11/15 03:41:21;;;;;;;;;;;;;;;;;;4966013;28;19998;-82
2023/11/15 03:43:47;;;;;;;;;;;;;;;;;;4965765;28;19902;-81
2023/11/15 03:46:19;;;;;;;;;;;;;;;;;;4982637;28;19903;-82
2023/11/15 03:48:44;;;;;;;;;;;;;;;;;;5048601;23;19958;-82
2023/11/15 03:51:13;;;;;;;;;;;;;;;;;;4959188;28;19922;-82
2023/11/15 03:53:45;;;;;;;;;;;;;;;;;;4958317;28;19942;-83
2023/11/15 03:56:10;;;;;;;;;;;;;;;;;;4958639;28;19907;-81
2023/11/15 03:58:37;;;;;;;;;;;;;;;;;;4957614;29;19919;-83
2023/11/15 04:01:09;;;;;;;;;;;;;;;;;;4941639;29;19910;-82
2023/11/15 04:03:36;;;;;;;;;;;;;;;;;;4940611;29;19921;-82
2023/11/15 04:06:05;;;;;;;;;;;;;;;;;;4957017;28;19907;-83
2023/11/15 04:08:31;;;;;;;;;;;;;;;;;;4956094;29;19907;-83
2023/11/15 04:10:59;;;;;;;;;;;;;;;;;;4971525;29;19915;-82
2023/11/15 04:13:27;;;;;;;;;;;;;;;;;;4955829;29;19911;-82
2023/11/15 04:15:55;;;;;;;;;;;;;;;;;;4954755;29;19922;-82
2023/11/15 04:18:38;;;;;;;;;;;;;;;;;;4935951;29;19915;-82
2023/11/15 04:21:03;;;;;;;;;;;;;;;;;;4949551;29;20006;-82
2023/11/15 04:23:31;;;;;;;;;;;;;;;;;;4971985;28;19915;-82
2023/11/15 04:25:59;;;;;;;;;;;;;;;;;;4958899;29;19966;-82
2023/11/15 04:28:26;;;;;;;;;;;;;;;;;;4975256;29;19982;-82
2023/11/15 04:30:53;;;;;;;;;;;;;;;;;;4957808;29;19914;-82
2023/11/15 04:33:22;;;;;;;;;;;;;;;;;;4941828;29;19910;-82
2023/11/15 04:35:47;;;;;;;;;;;;;;;;;;4958560;29;19922;-83
2023/11/15 04:38:16;;;;;;;;;;;;;;;;;;4944136;29;19974;-82
2023/11/15 04:40:42;;;;;;;;;;;;;;;;;;4960525;29;19915;-83
2023/11/15 04:43:09;;;;;;;;;;;;;;;;;;4961337;29;19906;-82
2023/11/15 04:45:35;;;;;;;;;;;;;;;;;;4962047;29;19895;-81
2023/11/15 04:48:04;;;;;;;;;;;;;;;;;;4977715;28;19921;-83
2023/11/15 04:50:32;;;;;;;;;;;;;;;;;;4946206;29;19989;-83
2023/11/15 04:53:17;;;;;;;;;;;;;;;;;;4975697;29;19959;-82
2023/11/15 04:55:44;;;;;;;;;;;;;;;;;;4962641;28;19914;-83
2023/11/15 04:58:14;;;;;;;;;;;;;;;;;;4962471;28;19910;-83
2023/11/15 05:00:59;;;;;;;;;;;;;;;;;;4962396;28;19982;-82
2023/11/15 05:03:25;;;;;;;;;;;;;;;;;;4978425;28;19919;-82
2023/11/15 05:05:51;;;;;;;;;;;;;;;;;;4962315;28;19910;-83
2023/11/15 05:08:20;;;;;;;;;;;;;;;;;;4961796;28;19906;-82
2023/11/15 05:10:45;;;;;;;;;;;;;;;;;;4961439;28;19910;-83
2023/11/15 05:13:31;;;;;;;;;;;;;;;;;;4961684;28;19985;-83
2023/11/15 05:15:57;;;;;;;;;;;;;;;;;;4972468;29;19949;-83
2023/11/15 05:18:22;;;;;;;;;;;;;;;;;;4964980;28;19938;-83
2023/11/15 05:21:07;;;;;;;;;;;;;;;;;;4967396;28;19926;-83
2023/11/15 05:23:34;;;;;;;;;;;;;;;;;;4965729;28;19934;-84
2023/11/15 05:26:18;;;;;;;;;;;;;;;;;;4968215;28;19905;-82
2023/11/15 05:28:45;;;;;;;;;;;;;;;;;;4951571;28;19910;-82
2023/11/15 05:31:12;;;;;;;;;;;;;;;;;;4965695;28;19946;-82
2023/11/15 05:33:41;;;;;;;;;;;;;;;;;;4965463;28;20004;-82
2023/11/15 05:36:07;;;;;;;;;;;;;;;;;;4965352;28;19919;-83
2023/11/15 05:38:32;;;;;;;;;;;;;;;;;;5062729;23;19978;-82
2023/11/15 05:40:59;;;;;;;;;;;;;;;;;;4964874;28;19919;-82
2023/11/15 05:43:25;;;;;;;;;;;;;;;;;;4963758;29;19986;-82
2023/11/15 05:45:50;;;;;;;;;;;;;;;;;;4975791;29;19902;-82
2023/11/15 05:48:22;;;;;;;;;;;;;;;;;;4971674;28;19921;-83
2023/11/15 05:53:24;;;;;;;;;;;;;;;;;;4966428;28;19931;-79
2023/11/15 05:55:50;;;;;;;;;;;;;;;;;;4979306;28;20330;-78
2023/11/15 05:58:16;;;;;;;;;;;;;;;;;;4982769;28;19918;-79
2023/11/15 06:00:42;;;;;;;;;;;;;;;;;;4980632;28;19973;-78
2023/11/15 06:03:10;;;;;;;;;;;;;;;;;;4975776;28;20000;-79
2023/11/15 06:05:54;;;;;;;;;;;;;;;;;;4976693;28;19921;-78
2023/11/15 06:08:20;;;;;;;;;;;;;;;;;;4976583;28;19918;-77
2023/11/15 06:10:47;;;;;;;;;;;;;;;;;;4977795;28;19914;-78
2023/11/15 06:13:15;;;;;;;;;;;;;;;;;;4976171;28;19992;-77
2023/11/15 06:15:41;;;;;;;;;;;;;;;;;;4975911;28;19926;-79
2023/11/15 06:18:07;;;;;;;;;;;;;;;;;;4960543;28;19914;-78
2023/11/15 06:20:33;;;;;;;;;;;;;;;;;;4944526;28;20289;-79
2023/11/15 06:22:58;;;;;;;;;;;;;;;;;;4961812;28;19914;-80
2023/11/15 06:25:24;;;;;;;;;;;;;;;;;;4961063;28;19914;-79
2023/11/15 06:27:49;;;;;;;;;;;;;;;;;;4976631;28;19953;-78
2023/11/15 06:30:34;;;;;;;;;;;;;;;;;;4976476;28;19977;-81
2023/11/15 06:32:59;;;;;;;;;;;;;;;;;;4961347;28;19918;-80
2023/11/15 06:35:25;;;;;;;;;;;;;;;;;;4960775;28;19924;-79
2023/11/15 06:38:09;;;;;;;;;;;;;;;;;;4976097;28;19921;-80
2023/11/15 06:40:35;;;;;;;;;;;;;;;;;;4977327;28;19918;-82
2023/11/15 06:43:01;;;;;;;;;;;;;;;;;;4978855;28;19921;-79
2023/11/15 06:45:27;;;;;;;;;;;;;;;;;;4960901;28;19914;-79
2023/11/15 06:47:53;;;;;;;;;;;;;;;;;;4960226;28;19921;-79
2023/11/15 06:50:20;;;;;;;;;;;;;;;;;;4977382;28;19925;-80
2023/11/15 06:52:45;;;;;;;;;;;;;;;;;;4960504;28;19924;-80
2023/11/15 06:55:29;;;;;;;;;;;;;;;;;;4978676;28;19960;-80
2023/11/15 06:57:55;;;;;;;;;;;;;;;;;;4960093;28;19914;-80
2023/11/15 07:00:21;;;;;;;;;;;;;;;;;;4960217;28;19978;-79
2023/11/15 07:02:47;;;;;;;;;;;;;;;;;;4943249;28;20319;-80
2023/11/15 07:05:13;;;;;;;;;;;;;;;;;;4975390;28;19945;-80
2023/11/15 07:07:38;;;;;;;;;;;;;;;;;;4958920;28;19929;-79
2023/11/15 07:10:07;;;;;;;;;;;;;;;;;;4959345;28;19914;-80
2023/11/15 07:12:35;;;;;;;;;;;;;;;;;;4976188;28;19920;-77
2023/11/15 07:15:02;;;;;;;;;;;;;;;;;;4976503;28;19910;-78
2023/11/15 07:17:28;;;;;;;;;;;;;;;;;;4944571;28;19914;-79
2023/11/15 07:19:53;;;;;;;;;;;;;;;;;;4958528;28;20409;-78
2023/11/15 07:22:19;;;;;;;;;;;;;;;;;;4973734;28;19949;-78
2023/11/15 07:25:06;;;;;;;;;;;;;;;;;;4960761;28;19968;-77
2023/11/15 07:27:35;;;;;;;;;;;;;;;;;;4941749;28;20282;-79
2023/11/15 07:30:01;;;;;;;;;;;;;;;;;;4941910;28;19922;-78
2023/11/15 07:32:27;;;;;;;;;;;;;;;;;;4958559;28;19988;-77
2023/11/15 07:34:54;;;;;;;;;;;;;;;;;;4942164;28;19914;-79
2023/11/15 07:37:20;;;;;;;;;;;;;;;;;;4959626;28;20014;-77
2023/11/15 07:40:08;;;;;;;;;;;;;;;;;;4963858;28;19941;-79
2023/11/15 07:42:34;;;;;;;;;;;;;;;;;;4965747;28;19922;-79
2023/11/15 07:45:18;;;;;;;;;;;;;;;;;;4994206;28;20016;-79
2023/11/15 07:47:43;;;;;;;;;;;;;;;;;;4982465;28;19922;-80
2023/11/15 07:50:27;;;;;;;;;;;;;;;;;;4975077;28;19933;-80
2023/11/15 07:52:53;;;;;;;;;;;;;;;;;;4974829;28;19918;-80
2023/11/15 07:55:18;;;;;;;;;;;;;;;;;;4975209;28;19949;-79
2023/11/15 07:57:44;;;;;;;;;;;;;;;;;;4957587;28;20021;-79
2023/11/15 08:00:11;;;;;;;;;;;;;;;;;;4975129;28;19957;-80
2023/11/15 08:02:38;;;;;;;;;;;;;;;;;;4976794;28;20480;-79
2023/11/15 08:05:04;;;;;;;;;;;;;;;;;;4959151;28;20013;-80
2023/11/15 08:07:30;;;;;;;;;;;;;;;;;;4959115;28;19941;-78
2023/11/15 08:09:55;;;;;;;;;;;;;;;;;;4974993;28;19914;-78
2023/11/15 08:12:26;;;;;;;;;;;;;;;;;;4976600;28;19910;-79
2023/11/15 08:14:51;;;;;;;;;;;;;;;;;;4959687;28;19922;-79
2023/11/15 08:17:19;;;;;;;;;;;;;;;;;;4977508;28;19914;-78
2023/11/15 08:19:45;;;;;;;;;;;;;;;;;;4982147;28;20019;-80
2023/11/15 08:22:10;;;;;;;;;;;;;;;;;;4986360;28;19920;-79
2023/11/15 08:24:36;;;;;;;;;;;;;;;;;;4988671;28;19909;-79
2023/11/15 08:27:03;;;;;;;;;;;;;;;;;;4993160;28;19918;-80
2023/11/15 08:29:29;;;;;;;;;;;;;;;;;;4996716;28;19914;-80
2023/11/15 08:31:57;;;;;;;;;;;;;;;;;;4997841;28;19913;-79
2023/11/15 08:34:24;;;;;;;;;;;;;;;;;;4998047;28;19913;-80
2023/11/15 08:36:50;;;;;;;;;;;;;;;;;;4997928;28;19961;-78
2023/11/15 08:39:16;;;;;;;;;;;;;;;;;;4965267;28;19946;-79
2023/11/15 08:41:42;;;;;;;;;;;;;;;;;;4997125;28;19969;-79
2023/11/15 08:44:08;;;;;;;;;;;;;;;;;;4995441;28;20521;-79
2023/11/15 08:46:33;;;;;;;;;;;;;;;;;;4993621;28;19918;-78
2023/11/15 08:49:00;;;;;;;;;;;;;;;;;;4983260;28;19925;-79
2023/11/15 08:51:25;;;;;;;;;;;;;;;;;;4974961;28;20005;-79
2023/11/15 08:53:51;;;;;;;;;;;;;;;;;;4976045;28;19976;-79
2023/11/15 08:56:16;;;;;;;;;;;;;;;;;;4942007;28;19980;-78
2023/11/15 08:58:42;;;;;;;;;;;;;;;;;;4976005;28;19914;-79
2023/11/15 09:01:27;;;;;;;;;;;;;;;;;;4977719;28;19921;-79
2023/11/15 09:04:15;;;;;;;;;;;;;;;;;;4978274;28;20277;-78
2023/11/15 09:07:00;;;;;;;;;;;;;;;;;;4975874;28;19917;-79
2023/11/15 09:09:26;;;;;;;;;;;;;;;;;;4974208;28;19918;-80
2023/11/15 09:11:56;;;;;;;;;;;;;;;;;;4979395;28;19914;-79
2023/11/15 09:14:22;;;;;;;;;;;;;;;;;;4978620;28;19977;-80
2023/11/15 09:16:48;;;;;;;;;;;;;;;;;;4978430;28;20518;-79
2023/11/15 09:19:20;;;;;;;;;;;;;;;;;;4977774;28;19914;-79
2023/11/15 09:21:46;;;;;;;;;;;;;;;;;;4976789;28;19914;-79
2023/11/15 09:24:11;;;;;;;;;;;;;;;;;;4976917;28;19917;-78
2023/11/15 09:26:37;;;;;;;;;;;;;;;;;;4977094;28;19918;-78
2023/11/15 09:29:03;;;;;;;;;;;;;;;;;;4977914;28;19918;-79
2023/11/15 09:31:29;;;;;;;;;;;;;;;;;;4978529;28;19914;-79
2023/11/15 09:33:55;;;;;;;;;;;;;;;;;;4977459;28;20001;-79
2023/11/15 09:36:20;;;;;;;;;;;;;;;;;;4978536;28;19977;-79
2023/11/15 09:38:47;;;;;;;;;;;;;;;;;;4960892;28;20362;-78
2023/11/15 09:41:13;;;;;;;;;;;;;;;;;;4977036;28;19957;-79
2023/11/15 09:43:44;;;;;;;;;;;;;;;;;;4978690;28;19925;-79
2023/11/15 09:46:15;;;;;;;;;;;;;;;;;;4978845;28;19915;-79
2023/11/15 09:48:47;;;;;;;;;;;;;;;;;;4978107;28;20431;-78
2023/11/15 09:51:14;;;;;;;;;;;;;;;;;;4978390;28;20058;-79
2023/11/15 09:53:39;;;;;;;;;;;;;;;;;;4977239;28;19914;-79
2023/11/15 09:56:04;;;;;;;;;;;;;;;;;;4978574;28;20002;-79
2023/11/15 09:58:30;;;;;;;;;;;;;;;;;;4963015;28;19910;-80
2023/11/15 10:00:56;;;;;;;;;;;;;;;;;;4979438;28;20017;-79
2023/11/15 10:03:21;;;;;;;;;;;;;;;;;;4979221;28;19989;-79
2023/11/15 10:05:47;;;;;;;;;;;;;;;;;;4980631;28;20385;-78
2023/11/15 10:08:15;;;;;;;;;;;;;;;;;;4978938;28;19921;-80
2023/11/15 10:10:40;;;;;;;;;;;;;;;;;;4946348;28;19914;-77
2023/11/15 10:13:08;;;;;;;;;;;;;;;;;;4977996;28;19914;-79
2023/11/15 10:15:37;;;;;;;;;;;;;;;;;;4977242;28;19916;-79
2023/11/15 10:18:03;;;;;;;;;;;;;;;;;;4961914;28;19925;-79
2023/11/15 10:20:30;;;;;;;;;;;;;;;;;;4961765;28;19965;-79
2023/11/15 10:22:57;;;;;;;;;;;;;;;;;;4974841;28;19914;-77
2023/11/15 10:25:25;;;;;;;;;;;;;;;;;;4977125;28;20403;-79
2023/11/15 10:27:51;;;;;;;;;;;;;;;;;;4960873;28;19957;-79
2023/11/15 10:30:16;;;;;;;;;;;;;;;;;;4977925;28;19910;-79
2023/11/15 10:32:42;;;;;;;;;;;;;;;;;;4976846;28;20013;-78
2023/11/15 10:35:08;;;;;;;;;;;;;;;;;;4977943;28;20412;-80
2023/11/15 10:37:34;;;;;;;;;;;;;;;;;;4975289;28;19909;-79
2023/11/15 10:40:00;;;;;;;;;;;;;;;;;;4960120;28;19914;-79
2023/11/15 10:42:28;;;;;;;;;;;;;;;;;;4976719;28;19915;-79
2023/11/15 10:44:58;;;;;;;;;;;;;;;;;;4977049;28;19914;-80
2023/11/15 10:47:24;;;;;;;;;;;;;;;;;;4978848;28;19961;-79
2023/11/15 10:49:50;;;;;;;;;;;;;;;;;;4978597;28;19914;-78
2023/11/15 10:52:15;;;;;;;;;;;;;;;;;;4976605;28;19985;-77
2023/11/15 10:54:40;;;;;;;;;;;;;;;;;;4976312;28;19920;-78
2023/11/15 10:57:06;;;;;;;;;;;;;;;;;;4943634;28;19949;-78
2023/11/15 10:59:33;;;;;;;;;;;;;;;;;;4943995;28;20332;-80
2023/11/15 11:02:00;;;;;;;;;;;;;;;;;;4961283;28;19960;-78
2023/11/15 11:04:25;;;;;;;;;;;;;;;;;;4976712;28;19921;-79
2023/11/15 11:06:53;;;;;;;;;;;;;;;;;;4961110;28;19914;-79
2023/11/15 11:09:21;;;;;;;;;;;;;;;;;;4960173;28;19914;-80
2023/11/15 11:11:46;;;;;;;;;;;;;;;;;;4978288;28;19918;-78
2023/11/15 11:14:12;;;;;;;;;;;;;;;;;;4960363;28;19973;-79
2023/11/15 11:16:40;;;;;;;;;;;;;;;;;;4984722;28;19920;-80
2023/11/15 11:19:05;;;;;;;;;;;;;;;;;;4996805;28;19902;-79
2023/11/15 11:21:31;;;;;;;;;;;;;;;;;;4997317;28;19965;-80
2023/11/15 11:23:57;;;;;;;;;;;;;;;;;;4997568;28;19933;-80
2023/11/15 11:26:22;;;;;;;;;;;;;;;;;;4980719;28;19968;-79
2023/11/15 11:28:47;;;;;;;;;;;;;;;;;;4996871;28;19926;-79
2023/11/15 11:31:13;;;;;;;;;;;;;;;;;;4992318;28;19945;-80
2023/11/15 11:33:40;;;;;;;;;;;;;;;;;;4988150;28;20005;-79
2023/11/15 11:36:05;;;;;;;;;;;;;;;;;;4975961;28;19918;-80
2023/11/15 11:38:31;;;;;;;;;;;;;;;;;;4977008;28;20219;-79
2023/11/15 11:40:56;;;;;;;;;;;;;;;;;;4976625;28;20266;-79
2023/11/15 11:43:30;;;;;;;;;;;;;;;;;;4976974;28;19915;-78
2023/11/15 11:45:56;;;;;;;;;;;;;;;;;;4976572;28;20012;-79
2023/11/15 11:48:25;;;;;;;;;;;;;;;;;;4976967;28;20020;-80
2023/11/15 11:50:51;;;;;;;;;;;;;;;;;;4958873;28;19913;-79
2023/11/15 11:53:17;;;;;;;;;;;;;;;;;;4958819;28;19918;-79
2023/11/15 11:55:43;;;;;;;;;;;;;;;;;;4976518;28;19961;-79
2023/11/15 11:58:08;;;;;;;;;;;;;;;;;;4974769;28;19914;-79
2023/11/15 12:00:34;;;;;;;;;;;;;;;;;;4976379;28;19956;-78
2023/11/15 12:03:02;;;;;;;;;;;;;;;;;;4974479;28;19914;-80
2023/11/15 12:05:32;;;;;;;;;;;;;;;;;;4974843;28;19914;-79
2023/11/15 12:07:57;;;;;;;;;;;;;;;;;;4975621;28;19918;-81
2023/11/15 12:10:24;;;;;;;;;;;;;;;;;;4976288;28;19914;-78
2023/11/15 12:12:50;;;;;;;;;;;;;;;;;;4958637;28;20392;-80
2023/11/15 12:15:18;;;;;;;;;;;;;;;;;;4942688;28;19965;-80
2023/11/15 12:17:46;;;;;;;;;;;;;;;;;;4942850;28;19918;-78
2023/11/15 12:20:13;;;;;;;;;;;;;;;;;;4959461;28;19914;-79
2023/11/15 12:22:40;;;;;;;;;;;;;;;;;;4959658;28;19921;-80
2023/11/15 12:25:08;;;;;;;;;;;;;;;;;;4959490;28;19921;-79
2023/11/15 12:27:33;;;;;;;;;;;;;;;;;;4976945;28;20385;-80
2023/11/15 12:29:59;;;;;;;;;;;;;;;;;;4975477;28;19918;-79
2023/11/15 12:32:25;;;;;;;;;;;;;;;;;;4942840;28;19910;-80
2023/11/15 12:34:50;;;;;;;;;;;;;;;;;;4941712;28;20384;-80
2023/11/15 12:37:16;;;;;;;;;;;;;;;;;;4943312;28;20086;-79
2023/11/15 12:39:41;;;;;;;;;;;;;;;;;;4963199;28;19906;-80
2023/11/15 12:42:07;;;;;;;;;;;;;;;;;;4980275;28;19968;-80
2023/11/15 12:44:33;;;;;;;;;;;;;;;;;;4997685;28;19933;-79
2023/11/15 12:47:00;;;;;;;;;;;;;;;;;;4999767;28;19961;-81
2023/11/15 12:49:25;;;;;;;;;;;;;;;;;;4998315;28;19926;-78
2023/11/15 12:51:54;;;;;;;;;;;;;;;;;;4979137;28;19976;-81
2023/11/15 12:54:22;;;;;;;;;;;;;;;;;;4964555;28;19932;-81
2023/11/15 12:56:47;;;;;;;;;;;;;;;;;;4980140;28;20029;-80
2023/11/15 12:59:17;;;;;;;;;;;;;;;;;;4948074;28;19914;-81
2023/11/15 13:01:43;;;;;;;;;;;;;;;;;;4996719;28;20333;-80
2023/11/15 13:04:09;;;;;;;;;;;;;;;;;;4981716;28;19910;-82
2023/11/15 13:06:34;;;;;;;;;;;;;;;;;;4981851;28;19914;-80
2023/11/15 13:09:02;;;;;;;;;;;;;;;;;;4982701;28;19992;-80
2023/11/15 13:11:29;;;;;;;;;;;;;;;;;;4979850;28;19960;-81
2023/11/15 13:13:57;;;;;;;;;;;;;;;;;;4967747;28;20400;-80
2023/11/15 13:16:23;;;;;;;;;;;;;;;;;;4985610;28;19910;-81
2023/11/15 13:18:49;;;;;;;;;;;;;;;;;;4981722;28;19914;-80
2023/11/15 13:21:14;;;;;;;;;;;;;;;;;;4978021;28;19937;-79
2023/11/15 13:23:40;;;;;;;;;;;;;;;;;;4963384;28;19910;-80
2023/11/15 13:26:06;;;;;;;;;;;;;;;;;;4979814;28;20378;-81
2023/11/15 13:28:34;;;;;;;;;;;;;;;;;;4946710;28;20457;-81
2023/11/15 13:30:59;;;;;;;;;;;;;;;;;;4945779;28;20262;-80
2023/11/15 13:33:25;;;;;;;;;;;;;;;;;;4962886;28;20009;-78
2023/11/15 13:35:50;;;;;;;;;;;;;;;;;;4978270;28;20396;-80
2023/11/15 13:38:16;;;;;;;;;;;;;;;;;;4978917;28;19917;-79
2023/11/15 13:40:42;;;;;;;;;;;;;;;;;;4977763;28;20030;-79
2023/11/15 13:43:07;;;;;;;;;;;;;;;;;;4962581;28;19933;-79
2023/11/15 13:45:32;;;;;;;;;;;;;;;;;;4980566;28;19910;-81
2023/11/15 13:47:58;;;;;;;;;;;;;;;;;;4984403;28;20361;-80
2023/11/15 13:50:24;;;;;;;;;;;;;;;;;;4988099;28;19914;-80
2023/11/15 13:52:50;;;;;;;;;;;;;;;;;;4978565;28;19925;-80
2023/11/15 13:55:15;;;;;;;;;;;;;;;;;;4980317;28;19903;-80
2023/11/15 13:57:41;;;;;;;;;;;;;;;;;;4978584;28;19962;-80
2023/11/15 14:00:23;;;;;;;;;;;;;;;;;;4989433;28;19968;-80
2023/11/15 14:02:49;;;;;;;;;;;;;;;;;;4982533;28;19922;-81
2023/11/15 14:05:17;;;;;;;;;;;;;;;;;;4980492;28;19910;-80
2023/11/15 14:07:43;;;;;;;;;;;;;;;;;;4970454;28;19921;-80
2023/11/15 14:10:12;;;;;;;;;;;;;;;;;;4997274;28;19910;-80
2023/11/15 14:12:39;;;;;;;;;;;;;;;;;;4998625;28;19911;-81
2023/11/15 14:15:08;;;;;;;;;;;;;;;;;;5000013;28;19929;-79
2023/11/15 14:17:35;;;;;;;;;;;;;;;;;;4998855;28;19945;-81
2023/11/15 14:20:00;;;;;;;;;;;;;;;;;;4998484;28;19926;-81
2023/11/15 14:22:26;;;;;;;;;;;;;;;;;;4998870;28;19941;-80
2023/11/15 14:24:52;;;;;;;;;;;;;;;;;;4987883;28;19997;-80
2023/11/15 14:27:23;;;;;;;;;;;;;;;;;;4994532;28;20016;-80
2023/11/15 14:29:49;;;;;;;;;;;;;;;;;;4977660;28;19922;-79
2023/11/15 14:32:16;;;;;;;;;;;;;;;;;;4979594;28;19910;-80
2023/11/15 14:34:42;;;;;;;;;;;;;;;;;;4977555;28;20136;-80
2023/11/15 14:37:09;;;;;;;;;;;;;;;;;;4978027;28;19925;-79
2023/11/15 14:39:35;;;;;;;;;;;;;;;;;;4975828;28;20008;-79
2023/11/15 14:42:00;;;;;;;;;;;;;;;;;;4980020;28;20364;-80
2023/11/15 14:44:26;;;;;;;;;;;;;;;;;;4980085;28;19914;-79
2023/11/15 14:46:52;;;;;;;;;;;;;;;;;;4962475;28;19910;-79
2023/11/15 14:49:18;;;;;;;;;;;;;;;;;;4978338;28;19922;-80
2023/11/15 14:51:50;;;;;;;;;;;;;;;;;;4963435;28;19968;-79
2023/11/15 14:54:20;;;;;;;;;;;;;;;;;;4966304;28;20377;-79
2023/11/15 14:56:49;;;;;;;;;;;;;;;;;;4980918;28;19920;-79
2023/11/15 14:59:14;;;;;;;;;;;;;;;;;;4965719;28;19910;-80
2023/11/15 15:01:40;;;;;;;;;;;;;;;;;;4978286;28;19937;-80
2023/11/15 15:04:08;;;;;;;;;;;;;;;;;;4963247;28;19918;-79
2023/11/15 15:06:34;;;;;;;;;;;;;;;;;;4979417;28;19914;-80
2023/11/15 15:08:59;;;;;;;;;;;;;;;;;;4978001;28;19924;-79
2023/11/15 15:11:30;;;;;;;;;;;;;;;;;;4978771;28;20028;-80
2023/11/15 15:13:55;;;;;;;;;;;;;;;;;;4969077;28;19921;-78
2023/11/15 15:16:21;;;;;;;;;;;;;;;;;;4988816;28;19914;-79
2023/11/15 15:18:47;;;;;;;;;;;;;;;;;;4995928;28;19945;-79
2023/11/15 15:21:14;;;;;;;;;;;;;;;;;;4997273;28;20032;-80
2023/11/15 15:23:42;;;;;;;;;;;;;;;;;;4989924;28;19960;-78
2023/11/15 15:26:12;;;;;;;;;;;;;;;;;;4982670;28;19918;-78
2023/11/15 15:28:37;;;;;;;;;;;;;;;;;;4978746;28;19937;-78
2023/11/15 15:31:03;;;;;;;;;;;;;;;;;;4978454;28;19914;-79
2023/11/15 15:33:29;;;;;;;;;;;;;;;;;;4978076;28;19914;-78
2023/11/15 15:35:55;;;;;;;;;;;;;;;;;;4977195;28;19920;-79
2023/11/15 15:38:21;;;;;;;;;;;;;;;;;;4980825;28;19922;-79
2023/11/15 15:40:48;;;;;;;;;;;;;;;;;;4980635;28;19914;-79
2023/11/15 15:43:15;;;;;;;;;;;;;;;;;;4978271;28;19921;-80
2023/11/15 15:45:44;;;;;;;;;;;;;;;;;;4975128;28;20075;-78
2023/11/15 15:48:12;;;;;;;;;;;;;;;;;;4975413;28;19925;-80
2023/11/15 15:50:37;;;;;;;;;;;;;;;;;;4943284;28;19945;-79
2023/11/15 15:53:04;;;;;;;;;;;;;;;;;;4975018;28;19960;-81
2023/11/15 15:55:30;;;;;;;;;;;;;;;;;;4978194;28;19910;-79
2023/11/15 15:57:56;;;;;;;;;;;;;;;;;;4960144;28;20014;-78
2023/11/15 16:00:22;;;;;;;;;;;;;;;;;;4977698;28;19984;-79
2023/11/15 16:02:49;;;;;;;;;;;;;;;;;;4976403;28;20301;-79
2023/11/15 16:05:17;;;;;;;;;;;;;;;;;;4977352;28;20329;-80
2023/11/15 16:07:43;;;;;;;;;;;;;;;;;;4979088;28;19920;-81
2023/11/15 16:10:09;;;;;;;;;;;;;;;;;;4959890;28;19989;-79
2023/11/15 16:12:36;;;;;;;;;;;;;;;;;;4975028;28;19961;-80
2023/11/15 16:15:02;;;;;;;;;;;;;;;;;;4976880;28;19938;-80
2023/11/15 16:17:34;;;;;;;;;;;;;;;;;;4978471;28;19949;-80
2023/11/15 16:20:01;;;;;;;;;;;;;;;;;;4976438;28;19969;-80
2023/11/15 16:22:26;;;;;;;;;;;;;;;;;;4975812;28;20428;-79
2023/11/15 16:24:54;;;;;;;;;;;;;;;;;;4975910;28;20001;-79
2023/11/15 16:27:21;;;;;;;;;;;;;;;;;;4973520;28;19922;-80
2023/11/15 16:29:47;;;;;;;;;;;;;;;;;;4958261;28;20375;-79
2023/11/15 16:32:13;;;;;;;;;;;;;;;;;;4976315;28;20444;-79
2023/11/15 16:34:38;;;;;;;;;;;;;;;;;;4975163;28;19918;-78
2023/11/15 16:37:04;;;;;;;;;;;;;;;;;;4974810;28;20444;-78
2023/11/15 16:39:30;;;;;;;;;;;;;;;;;;4975620;28;19946;-80
2023/11/15 16:41:59;;;;;;;;;;;;;;;;;;4975232;28;19922;-78
2023/11/15 16:44:34;;;;;;;;;;;;;;;;;;4975630;28;20416;-79
2023/11/15 16:46:59;;;;;;;;;;;;;;;;;;4974747;28;19953;-79
2023/11/15 16:49:25;;;;;;;;;;;;;;;;;;4974400;28;19973;-79
2023/11/15 16:51:51;;;;;;;;;;;;;;;;;;4975881;28;19918;-80
2023/11/15 16:54:16;;;;;;;;;;;;;;;;;;4979408;28;19917;-79
2023/11/15 16:56:42;;;;;;;;;;;;;;;;;;4980380;28;19914;-80
2023/11/15 16:59:11;;;;;;;;;;;;;;;;;;4969306;28;19929;-80
2023/11/15 17:01:37;;;;;;;;;;;;;;;;;;4974447;28;20040;-79
2023/11/15 17:04:02;;;;;;;;;;;;;;;;;;4990683;28;19975;-79
2023/11/15 17:06:28;;;;;;;;;;;;;;;;;;5010568;28;19986;-79
2023/11/15 17:08:54;;;;;;;;;;;;;;;;;;4978228;28;19917;-79
2023/11/15 17:11:19;;;;;;;;;;;;;;;;;;4978505;28;19918;-78
2023/11/15 17:13:45;;;;;;;;;;;;;;;;;;4992135;28;19973;-78
2023/11/15 17:16:11;;;;;;;;;;;;;;;;;;4981616;28;19958;-80
2023/11/15 17:18:36;;;;;;;;;;;;;;;;;;4974700;28;19914;-79